createdAt,value
2019-04-14T00:02:44.725Z,11.78
2019-04-14T00:05:35.476Z,11.97
2019-04-14T00:08:26.341Z,13.78
2019-04-14T00:11:15.169Z,13.30
2019-04-14T00:14:05.223Z,13.03
2019-04-14T00:16:55.344Z,13.00
2019-04-14T00:19:45.672Z,14.98
2019-04-14T00:22:35.672Z,15.48
2019-04-14T00:25:26.199Z,12.15
2019-04-14T00:28:16.393Z,13.53
2019-04-14T00:31:06.576Z,14.65
2019-04-14T00:33:58.632Z,13.50
2019-04-14T00:37:05.600Z,13.58
2019-04-14T00:39:59.658Z,13.45
2019-04-14T00:42:59.159Z,17.27
2019-04-14T00:45:56.814Z,15.53
2019-04-14T00:48:45.888Z,16.27
2019-04-14T00:51:38.245Z,13.62
2019-04-14T00:54:32.454Z,13.93
2019-04-14T00:57:22.940Z,15.35
2019-04-14T01:00:16.963Z,14.55
2019-04-14T01:03:05.474Z,17.10
2019-04-14T01:05:54.986Z,15.55
2019-04-14T01:08:44.635Z,14.05
2019-04-14T01:11:34.056Z,14.30
2019-04-14T01:14:23.366Z,15.55
2019-04-14T01:17:13.418Z,14.55
2019-04-14T01:20:03.638Z,14.58
2019-04-14T01:22:53.230Z,14.63
2019-04-14T01:25:43.261Z,14.33
2019-04-14T01:28:33.190Z,15.48
2019-04-14T01:31:23.058Z,14.85
2019-04-14T01:34:13.351Z,13.50
2019-04-14T01:37:02.966Z,13.88
2019-04-14T01:39:52.543Z,15.03
2019-04-14T01:42:42.175Z,16.05
2019-04-14T01:45:31.750Z,16.25
2019-04-14T01:48:21.442Z,15.03
2019-04-14T01:51:48.706Z,16.10
2019-04-14T01:55:09.024Z,16.00
2019-04-14T01:58:18.584Z,17.92
2019-04-14T02:01:15.080Z,14.73
2019-04-14T02:04:04.992Z,16.77
2019-04-14T02:06:55.233Z,13.62
2019-04-14T02:09:44.865Z,14.63
2019-04-14T02:12:34.467Z,18.15
2019-04-14T02:15:24.460Z,16.65
2019-04-14T02:18:14.406Z,15.80
2019-04-14T02:21:04.350Z,16.07
2019-04-14T02:23:54.066Z,16.20
2019-04-14T02:26:43.927Z,14.78
2019-04-14T02:29:34.115Z,17.55
2019-04-14T02:32:49.533Z,15.43
2019-04-14T02:35:44.990Z,17.07
2019-04-14T02:44:32.156Z,15.90
2019-04-14T02:49:58.179Z,15.65
2019-04-14T02:55:44.868Z,14.78
2019-04-14T02:58:42.068Z,16.82
2019-04-14T03:01:23.362Z,15.45
2019-04-14T03:04:04.170Z,17.77
2019-04-14T03:07:04.978Z,17.32
2019-04-14T03:09:46.990Z,16.97
2019-04-14T03:18:44.684Z,14.85
2019-04-14T03:21:49.116Z,18.17
2019-04-14T03:24:47.292Z,16.95
2019-04-14T03:27:55.193Z,14.90
2019-04-14T03:34:06.666Z,16.35
2019-04-14T03:37:16.511Z,18.52
2019-04-14T03:39:27.392Z,15.98
2019-04-14T03:42:24.890Z,14.58
2019-04-14T03:45:11.147Z,16.97
2019-04-14T03:48:31.812Z,15.13
2019-04-14T03:50:55.916Z,16.45
2019-04-14T03:53:32.124Z,15.50
2019-04-14T03:56:46.328Z,17.62
2019-04-14T03:59:36.752Z,15.15
2019-04-14T04:02:27.176Z,15.38
2019-04-14T04:05:17.406Z,16.35
2019-04-14T04:08:07.198Z,15.78
2019-04-14T04:10:57.602Z,15.10
2019-04-14T04:13:47.758Z,16.20
2019-04-14T04:17:12.221Z,16.25
2019-04-14T04:20:10.994Z,14.80
2019-04-14T04:23:09.664Z,15.55
2019-04-14T04:26:06.695Z,15.00
2019-04-14T04:29:02.760Z,15.23
2019-04-14T04:32:14.273Z,14.45
2019-04-14T04:35:13.143Z,15.10
2019-04-14T04:38:09.584Z,15.95
2019-04-14T04:43:49.457Z,15.10
2019-04-14T04:46:39.512Z,17.57
2019-04-14T04:49:30.801Z,15.32
2019-04-14T04:52:21.749Z,15.83
2019-04-14T04:55:11.252Z,17.00
2019-04-14T04:58:01.392Z,15.50
2019-04-14T05:00:54.195Z,15.98
2019-04-14T05:03:42.831Z,13.98
2019-04-14T05:07:07.845Z,15.88
2019-04-14T05:10:17.485Z,16.42
2019-04-14T05:13:21.181Z,16.10
2019-04-14T05:16:10.776Z,15.55
2019-04-14T05:19:12.013Z,15.55
2019-04-14T05:21:54.040Z,14.95
2019-04-14T05:24:44.098Z,16.48
2019-04-14T05:27:34.249Z,16.27
2019-04-14T05:30:24.314Z,17.10
2019-04-14T05:33:14.181Z,17.12
2019-04-14T05:36:04.185Z,15.50
2019-04-14T05:38:54.180Z,17.35
2019-04-14T05:41:56.825Z,15.78
2019-04-14T05:44:36.111Z,16.70
2019-04-14T05:47:26.194Z,20.17
2019-04-14T05:50:16.104Z,19.48
2019-04-14T05:53:06.489Z,16.82
2019-04-14T05:55:56.766Z,17.95
2019-04-14T05:58:47.164Z,15.58
2019-04-14T06:01:36.666Z,19.57
2019-04-14T06:04:26.485Z,17.30
2019-04-14T06:07:16.175Z,18.32
2019-04-14T06:10:06.804Z,17.73
2019-04-14T06:12:56.373Z,19.05
2019-04-14T06:15:45.689Z,19.05
2019-04-14T06:18:34.908Z,19.85
2019-04-14T06:21:23.970Z,18.90
2019-04-14T06:24:12.730Z,19.65
2019-04-14T06:27:03.645Z,18.27
2019-04-14T06:29:56.709Z,17.90
2019-04-14T06:32:46.254Z,17.57
2019-04-14T06:35:54.360Z,18.98
2019-04-14T06:38:46.625Z,18.00
2019-04-14T06:41:36.935Z,20.08
2019-04-14T06:44:26.606Z,21.00
2019-04-14T06:47:15.872Z,20.97
2019-04-14T06:50:05.880Z,24.18
2019-04-14T06:52:54.667Z,20.68
2019-04-14T06:55:43.887Z,25.10
2019-04-14T06:58:33.629Z,22.60
2019-04-14T07:01:23.615Z,22.95
2019-04-14T07:04:13.183Z,21.50
2019-04-14T07:07:02.561Z,22.52
2019-04-14T07:09:52.265Z,25.02
2019-04-14T07:12:43.029Z,25.05
2019-04-14T07:15:32.932Z,24.23
2019-04-14T07:18:22.506Z,25.60
2019-04-14T07:21:11.923Z,25.68
2019-04-14T07:24:01.464Z,23.90
2019-04-14T07:26:51.597Z,25.77
2019-04-14T07:29:55.761Z,26.55
2019-04-14T07:33:01.700Z,27.77
2019-04-14T07:36:09.143Z,27.37
2019-04-14T07:39:17.546Z,27.05
2019-04-14T07:42:10.144Z,26.17
2019-04-14T07:45:13.543Z,26.50
2019-04-14T07:48:26.418Z,25.30
2019-04-14T07:51:32.842Z,27.30
2019-04-14T07:57:43.154Z,24.87
2019-04-14T08:00:40.269Z,28.50
2019-04-14T08:03:49.567Z,29.80
2019-04-14T08:06:39.482Z,26.27
2019-04-14T08:09:28.373Z,31.27
2019-04-14T08:12:17.529Z,28.40
2019-04-14T08:15:07.372Z,27.35
2019-04-14T08:17:57.563Z,27.70
2019-04-14T08:20:46.981Z,26.05
2019-04-14T08:23:36.218Z,26.87
2019-04-14T08:26:24.971Z,26.57
2019-04-14T08:29:14.956Z,28.00
2019-04-14T08:32:04.270Z,25.92
2019-04-14T08:34:53.800Z,28.42
2019-04-14T08:37:43.005Z,28.17
2019-04-14T08:40:32.433Z,29.10
2019-04-14T08:43:39.823Z,24.35
2019-04-14T08:46:42.314Z,24.40
2019-04-14T08:49:44.092Z,29.20
2019-04-14T08:52:41.458Z,25.20
2019-04-14T08:55:39.129Z,24.67
2019-04-14T08:58:37.978Z,24.40
2019-04-14T09:01:42.640Z,26.77
2019-04-14T09:04:56.039Z,24.25
2019-04-14T09:08:02.269Z,22.13
2019-04-14T09:10:55.902Z,21.90
2019-04-14T09:13:44.819Z,22.75
2019-04-14T09:16:34.278Z,19.40
2019-04-14T09:19:24.032Z,23.62
2019-04-14T09:22:13.617Z,20.55
2019-04-14T09:25:02.829Z,19.73
2019-04-14T09:27:52.260Z,21.33
2019-04-14T09:30:41.109Z,20.23
2019-04-14T09:33:30.924Z,16.67
2019-04-14T09:36:20.726Z,16.50
2019-04-14T09:39:09.487Z,19.70
2019-04-14T09:42:00.904Z,18.23
2019-04-14T09:44:50.512Z,18.00
2019-04-14T09:47:40.138Z,17.87
2019-04-14T09:50:29.713Z,19.25
2019-04-14T09:53:18.653Z,19.15
2019-04-14T09:56:08.125Z,18.82
2019-04-14T09:58:57.707Z,16.57
2019-04-14T10:01:47.049Z,18.02
2019-04-14T10:04:35.865Z,17.42
2019-04-14T10:07:25.116Z,15.72
2019-04-14T10:10:14.475Z,17.67
2019-04-14T10:13:04.384Z,18.07
2019-04-14T10:15:54.197Z,15.30
2019-04-14T10:18:43.335Z,18.23
2019-04-14T10:21:33.019Z,18.42
2019-04-14T10:24:22.787Z,14.93
2019-04-14T10:27:11.534Z,15.83
2019-04-14T10:30:00.675Z,15.63
2019-04-14T10:32:50.589Z,15.83
2019-04-14T10:35:39.409Z,18.27
2019-04-14T10:38:28.859Z,20.82
2019-04-14T10:41:19.389Z,16.02
2019-04-14T10:44:08.895Z,17.75
2019-04-14T10:46:58.832Z,17.50
2019-04-14T10:49:48.023Z,16.05
2019-04-14T10:52:37.056Z,16.42
2019-04-14T10:55:26.644Z,15.65
2019-04-14T10:58:15.555Z,18.48
2019-04-14T11:01:04.362Z,17.75
2019-04-14T11:03:53.543Z,16.25
2019-04-14T11:06:47.578Z,16.97
2019-04-14T11:09:37.260Z,19.05
2019-04-14T11:12:26.793Z,17.20
2019-04-14T11:15:15.712Z,16.48
2019-04-14T11:18:04.613Z,16.52
2019-04-14T11:20:54.455Z,16.82
2019-04-14T11:23:44.061Z,14.63
2019-04-14T11:26:33.785Z,18.82
2019-04-14T11:29:23.316Z,14.07
2019-04-14T11:32:30.953Z,16.97
2019-04-14T11:35:42.478Z,12.73
2019-04-14T11:38:38.954Z,14.20
2019-04-14T11:41:27.936Z,14.40
2019-04-14T11:44:17.658Z,14.87
2019-04-14T11:47:07.256Z,13.30
2019-04-14T11:49:58.463Z,13.45
2019-04-14T11:52:47.746Z,12.53
2019-04-14T11:55:37.329Z,11.83
2019-04-14T11:58:29.139Z,12.47
2019-04-14T12:01:34.422Z,16.12
2019-04-14T12:04:31.337Z,14.58
2019-04-14T12:07:28.073Z,12.68
2019-04-14T12:10:20.312Z,13.25
2019-04-14T12:13:10.255Z,14.55
2019-04-14T12:15:59.762Z,13.15
2019-04-14T12:18:49.319Z,14.28
2019-04-14T12:21:38.179Z,15.25
2019-04-14T12:24:28.293Z,14.15
2019-04-14T12:27:17.614Z,13.28
2019-04-14T12:30:11.036Z,12.07
2019-04-14T12:33:00.364Z,12.90
2019-04-14T12:35:50.136Z,12.90
2019-04-14T12:38:39.162Z,13.25
2019-04-14T12:41:36.193Z,10.95
2019-04-14T12:47:54.004Z,10.53
2019-04-14T12:50:53.008Z,10.03
2019-04-14T12:53:44.274Z,12.35
2019-04-14T12:56:34.405Z,12.68
2019-04-14T12:59:24.621Z,10.15
2019-04-14T13:02:20.201Z,11.78
2019-04-14T13:05:10.110Z,10.35
2019-04-14T13:08:00.521Z,11.25
2019-04-14T13:10:50.216Z,10.23
2019-04-14T13:13:39.490Z,9.23
2019-04-14T13:16:30.111Z,11.22
2019-04-14T13:19:19.591Z,11.83
2019-04-14T13:22:08.898Z,12.68
2019-04-14T13:24:59.011Z,13.00
2019-04-14T13:27:50.183Z,9.78
2019-04-14T13:30:42.294Z,10.18
2019-04-14T13:33:31.422Z,10.80
2019-04-14T13:36:20.843Z,11.80
2019-04-14T13:39:12.714Z,13.35
2019-04-14T13:42:01.620Z,12.07
2019-04-14T13:44:51.301Z,11.63
2019-04-14T13:47:43.404Z,9.98
2019-04-14T13:50:38.228Z,11.08
2019-04-14T13:53:27.745Z,10.20
2019-04-14T13:56:16.981Z,10.78
2019-04-14T13:59:05.864Z,11.90
2019-04-14T14:01:55.764Z,11.73
2019-04-14T14:04:44.924Z,13.68
2019-04-14T14:07:33.977Z,11.63
2019-04-14T14:10:23.694Z,12.93
2019-04-14T14:13:26.580Z,9.75
2019-04-14T14:16:26.023Z,10.98
2019-04-14T14:19:34.337Z,9.63
2019-04-14T14:22:37.608Z,9.98
2019-04-14T14:25:32.563Z,11.15
2019-04-14T14:28:21.491Z,8.35
2019-04-14T14:31:10.777Z,11.63
2019-04-14T14:34:00.350Z,8.40
2019-04-14T14:36:51.012Z,8.50
2019-04-14T14:39:40.400Z,10.23
2019-04-14T14:42:29.534Z,8.88
2019-04-14T14:45:37.307Z,10.20
2019-04-14T14:48:45.845Z,9.03
2019-04-14T14:51:44.757Z,16.10
2019-04-14T14:54:33.842Z,9.63
2019-04-14T14:57:27.690Z,10.05
2019-04-14T15:00:36.277Z,12.18
2019-04-14T15:03:25.975Z,11.95
2019-04-14T15:06:16.270Z,9.88
2019-04-14T15:09:09.119Z,12.40
2019-04-14T15:12:00.851Z,11.55
2019-04-14T15:14:50.662Z,10.08
2019-04-14T15:17:40.168Z,9.68
2019-04-14T15:20:29.160Z,10.00
2019-04-14T15:23:24.700Z,9.45
2019-04-14T15:26:09.724Z,11.30
2019-04-14T15:28:59.323Z,10.32
2019-04-14T15:31:48.577Z,9.45
2019-04-14T15:34:38.080Z,10.98
2019-04-14T15:37:27.437Z,9.68
2019-04-14T15:40:18.986Z,9.55
2019-04-14T15:43:08.251Z,11.08
2019-04-14T15:45:59.562Z,10.38
2019-04-14T15:48:48.879Z,9.75
2019-04-14T15:51:38.103Z,10.35
2019-04-14T15:54:27.771Z,9.75
2019-04-14T15:57:36.904Z,9.18
2019-04-14T16:00:56.112Z,10.38
2019-04-14T16:03:53.176Z,10.40
2019-04-14T16:07:17.177Z,10.32
2019-04-14T16:10:15.680Z,9.10
2019-04-14T16:13:11.493Z,9.98
2019-04-14T16:16:11.419Z,12.45
2019-04-14T16:19:11.747Z,13.40
2019-04-14T16:22:01.796Z,11.25
2019-04-14T16:24:51.452Z,10.23
2019-04-14T16:27:55.052Z,11.75
2019-04-14T16:31:02.572Z,10.50
2019-04-14T16:34:26.151Z,9.98
2019-04-14T16:37:15.835Z,9.75
2019-04-14T16:40:04.781Z,9.88
2019-04-14T16:42:55.038Z,10.55
2019-04-14T16:45:44.693Z,11.03
2019-04-14T16:48:33.542Z,12.85
2019-04-14T16:51:27.638Z,13.05
2019-04-14T16:54:54.705Z,10.70
2019-04-14T16:58:03.416Z,11.93
2019-04-14T17:00:58.571Z,13.25
2019-04-14T17:03:47.497Z,11.38
2019-04-14T17:06:37.460Z,11.73
2019-04-14T17:09:27.369Z,10.35
2019-04-14T17:12:18.469Z,11.20
2019-04-14T17:15:19.644Z,12.85
2019-04-14T17:18:19.295Z,12.68
2019-04-14T17:21:31.901Z,12.10
2019-04-14T17:24:48.892Z,12.90
2019-04-14T17:27:46.453Z,17.75
2019-04-14T17:30:48.845Z,11.55
2019-04-14T17:33:42.831Z,13.05
2019-04-14T17:36:44.243Z,16.30
2019-04-14T17:39:38.889Z,15.28
2019-04-14T17:42:39.503Z,14.50
2019-04-14T17:45:40.496Z,13.83
2019-04-14T17:48:45.704Z,12.40
2019-04-14T17:51:53.454Z,13.95
2019-04-14T17:54:48.822Z,14.83
2019-04-14T17:57:57.306Z,12.88
2019-04-14T18:01:04.601Z,12.05
2019-04-14T18:04:00.649Z,11.68
2019-04-14T18:10:09.754Z,14.38
2019-04-14T18:13:20.781Z,13.38
2019-04-14T18:16:22.923Z,12.78
2019-04-14T18:19:23.145Z,14.73
2019-04-14T18:22:12.197Z,14.95
2019-04-14T18:25:02.310Z,14.55
2019-04-14T18:28:09.432Z,14.15
2019-04-14T18:31:24.411Z,13.35
2019-04-14T18:34:31.376Z,11.55
2019-04-14T18:40:36.118Z,14.40
2019-04-14T18:43:52.918Z,13.60
2019-04-14T18:46:51.770Z,17.67
2019-04-14T18:49:53.597Z,11.60
2019-04-14T18:53:09.506Z,15.50
2019-04-14T18:56:10.181Z,12.35
2019-04-14T18:59:26.073Z,14.00
2019-04-14T19:02:18.724Z,16.10
2019-04-14T19:05:09.131Z,12.43
2019-04-14T19:08:03.177Z,12.25
2019-04-14T19:11:08.393Z,13.72
2019-04-14T19:13:59.463Z,13.60
2019-04-14T19:16:53.765Z,11.83
2019-04-14T19:20:00.560Z,12.18
2019-04-14T19:22:39.668Z,12.63
2019-04-14T19:25:30.699Z,13.25
2019-04-14T19:28:19.873Z,16.80
2019-04-14T19:31:09.196Z,12.82
2019-04-14T19:33:59.221Z,14.95
2019-04-14T19:36:49.030Z,14.60
2019-04-14T19:39:38.700Z,12.43
2019-04-14T19:42:28.326Z,13.98
2019-04-14T19:45:17.647Z,12.37
2019-04-14T19:48:06.618Z,11.95
2019-04-14T19:50:57.909Z,12.80
2019-04-14T19:53:47.172Z,15.03
2019-04-14T19:56:38.132Z,12.85
2019-04-14T19:59:29.991Z,12.60
2019-04-14T20:02:21.165Z,12.90
2019-04-14T20:05:12.150Z,13.93
2019-04-14T20:08:03.729Z,14.33
2019-04-14T20:10:54.269Z,13.28
2019-04-14T20:13:47.412Z,11.85
2019-04-14T20:16:44.806Z,13.30
2019-04-14T20:20:00.396Z,11.80
2019-04-14T20:23:01.109Z,9.70
2019-04-14T20:26:14.987Z,12.95
2019-04-14T20:29:16.499Z,12.35
2019-04-14T20:32:27.712Z,16.65
2019-04-14T20:35:17.918Z,11.15
2019-04-14T20:38:12.919Z,12.82
2019-04-14T20:41:02.987Z,14.15
2019-04-14T20:43:53.175Z,12.35
2019-04-14T20:46:43.091Z,12.55
2019-04-14T20:49:32.325Z,14.28
2019-04-14T20:52:25.456Z,12.60
2019-04-14T20:55:14.908Z,12.90
2019-04-14T20:58:04.431Z,11.63
2019-04-14T21:00:55.938Z,11.85
2019-04-14T21:04:04.878Z,11.00
2019-04-14T21:07:19.188Z,12.35
2019-04-14T21:10:18.769Z,12.47
2019-04-14T21:13:15.029Z,14.53
2019-04-14T21:16:22.752Z,12.65
2019-04-14T21:19:27.158Z,12.68
2019-04-14T21:22:33.573Z,11.97
2019-04-14T21:25:59.230Z,13.23
2019-04-14T21:28:54.502Z,10.88
2019-04-14T21:31:49.976Z,12.82
2019-04-14T21:34:52.042Z,13.22
2019-04-14T21:38:10.005Z,13.95
2019-04-14T21:41:04.208Z,11.90
2019-04-14T21:43:56.828Z,11.75
2019-04-14T21:46:47.762Z,12.85
2019-04-14T21:49:37.339Z,11.12
2019-04-14T21:52:45.809Z,14.60
2019-04-14T21:55:35.500Z,15.32
2019-04-14T21:58:30.077Z,11.97
2019-04-14T22:02:16.208Z,10.80
2019-04-14T22:05:14.584Z,12.10
2019-04-14T22:08:16.053Z,11.35
2019-04-14T22:11:08.379Z,14.23
2019-04-14T22:13:59.105Z,13.58
2019-04-14T22:16:48.121Z,12.03
2019-04-14T22:19:37.702Z,11.93
2019-04-14T22:22:26.791Z,14.05
2019-04-14T22:25:16.322Z,12.10
2019-04-14T22:28:06.109Z,12.60
2019-04-14T22:30:55.522Z,12.18
2019-04-14T22:33:45.283Z,11.43
2019-04-14T22:36:35.139Z,11.97
2019-04-14T22:39:24.321Z,11.00
2019-04-14T22:42:14.628Z,12.58
2019-04-14T22:45:05.311Z,15.83
2019-04-14T22:47:54.903Z,11.40
2019-04-14T22:50:43.713Z,11.80
2019-04-14T22:53:32.915Z,14.85
2019-04-14T22:56:21.883Z,13.13
2019-04-14T22:59:11.574Z,10.35
2019-04-14T23:02:09.656Z,11.73
2019-04-14T23:05:11.469Z,10.40
2019-04-14T23:08:24.182Z,13.35
2019-04-14T23:11:24.752Z,11.48
2019-04-14T23:14:31.439Z,10.15
2019-04-14T23:17:39.655Z,13.93
2019-04-14T23:20:34.185Z,11.78
2019-04-14T23:23:38.522Z,10.35
2019-04-14T23:26:27.410Z,11.28
2019-04-14T23:29:16.375Z,10.18
2019-04-14T23:32:06.750Z,10.30
2019-04-14T23:34:56.732Z,9.55
2019-04-14T23:37:45.987Z,12.43
2019-04-14T23:40:35.872Z,11.03
2019-04-14T23:43:26.616Z,11.00
2019-04-14T23:46:16.513Z,11.05
2019-04-14T23:49:06.730Z,14.68
2019-04-14T23:51:56.131Z,14.00
2019-04-14T23:54:45.671Z,12.18
2019-04-14T23:57:34.858Z,12.15
